Tarrant West's Hourly Summary for Wednesday, March 15, 2017
Hour Temp
(f)
RH
(%)
Solar Rad.
(MJ/m2)
Rainfall
(in)
Wind
(mph)
3/15/2017 12:00 AM 53 51 0 0 6.67
3/15/2017 1:00 AM 51 51 0 0 8.1
3/15/2017 2:00 AM 49 54 0 0 8.72
3/15/2017 3:00 AM 46 58 0 0 9.95
3/15/2017 4:00 AM 43 63 0 0 7.78
3/15/2017 5:00 AM 41 67 0 0 6.45
3/15/2017 6:00 AM 40 69 0 0 6.03
3/15/2017 7:00 AM 40 72 0 0 6.67
3/15/2017 8:00 AM 42 70 0.27 0 6.17
3/15/2017 9:00 AM 46 64 0.81 0 10.63
3/15/2017 10:00 AM 50 60 1.65 0 10.6
3/15/2017 11:00 AM 54 55 2.28 0 10.22
3/15/2017 12:00 PM 56 51 2.71 0 10.63
3/15/2017 1:00 PM 59 48 2.92 0 10.1
3/15/2017 2:00 PM 61 46 2.9 0 9.3
3/15/2017 3:00 PM 63 46 2.63 0 8.68
3/15/2017 4:00 PM 64 46 1.59 0 9.28
3/15/2017 5:00 PM 65 46 0.75 0 11.22
3/15/2017 6:00 PM 65 47 0.51 0 11.18
3/15/2017 7:00 PM 63 51 0.11 0 10.22
3/15/2017 8:00 PM 60 57 0 0 8.55
3/15/2017 9:00 PM 58 62 0 0 8.15
3/15/2017 10:00 PM 57 67 0 0 8.3
3/15/2017 11:00 PM 55 68 0 0 8.3
Data Summary 53 57 19.13 0.00 8.83